createdAt,value
2019-02-03T00:00:11.390Z,5.96
2019-02-03T00:01:11.381Z,5.77
2019-02-03T00:02:11.389Z,5.78
2019-02-03T00:03:11.389Z,5.64
2019-02-03T00:04:11.386Z,5.70
2019-02-03T00:05:11.339Z,5.68
2019-02-03T00:06:11.349Z,5.73
2019-02-03T00:07:11.345Z,5.71
2019-02-03T00:08:11.346Z,5.75
2019-02-03T00:09:11.312Z,5.75
2019-02-03T00:10:11.326Z,5.81
2019-02-03T00:11:11.300Z,5.68
2019-02-03T00:12:11.278Z,5.67
2019-02-03T00:13:11.269Z,5.67
2019-02-03T00:14:11.261Z,5.68
2019-02-03T00:15:11.272Z,5.74
2019-02-03T00:16:11.300Z,5.74
2019-02-03T00:17:11.274Z,5.78
2019-02-03T00:18:11.228Z,5.75
2019-02-03T00:19:11.205Z,5.75
2019-02-03T00:20:11.232Z,5.64
2019-02-03T00:21:11.216Z,5.66
2019-02-03T00:22:11.259Z,5.75
2019-02-03T00:23:11.181Z,5.70
2019-02-03T00:24:11.213Z,5.70
2019-02-03T00:25:11.192Z,5.71
2019-02-03T00:26:11.144Z,5.71
2019-02-03T00:27:11.148Z,5.81
2019-02-03T00:28:11.164Z,5.74
2019-02-03T00:29:11.193Z,5.67
2019-02-03T00:30:11.108Z,5.67
2019-02-03T00:31:11.104Z,5.64
2019-02-03T00:32:11.085Z,5.67
2019-02-03T00:33:11.079Z,5.64
2019-02-03T00:34:11.097Z,5.57
2019-02-03T00:35:11.089Z,5.64
2019-02-03T00:36:11.103Z,5.67
2019-02-03T00:37:16.565Z,5.63
2019-02-03T00:38:21.334Z,5.52
2019-02-03T00:39:11.136Z,5.59
2019-02-03T00:40:11.094Z,5.59
2019-02-03T00:41:11.134Z,5.57
2019-02-03T00:42:11.031Z,5.49
2019-02-03T00:43:11.005Z,5.55
2019-02-03T00:44:10.978Z,5.52
2019-02-03T00:45:10.981Z,5.57
2019-02-03T00:46:10.961Z,5.53
2019-02-03T00:47:10.954Z,5.49
2019-02-03T00:48:10.962Z,5.50
2019-02-03T00:49:10.970Z,5.52
2019-02-03T00:50:11.019Z,5.46
2019-02-03T00:51:10.944Z,5.48
2019-02-03T00:52:10.930Z,5.53
2019-02-03T00:53:10.889Z,5.46
2019-02-03T00:54:10.930Z,5.41
2019-02-03T00:55:10.913Z,5.46
2019-02-03T00:56:10.930Z,5.48
2019-02-03T00:57:10.910Z,5.32
2019-02-03T00:58:10.921Z,5.40
2019-02-03T00:59:10.870Z,5.46
2019-02-03T01:00:10.860Z,5.45
2019-02-03T01:01:10.818Z,5.28
2019-02-03T01:02:10.800Z,5.40
2019-02-03T01:03:10.811Z,5.50
2019-02-03T01:04:10.789Z,5.45
2019-02-03T01:05:10.797Z,5.46
2019-02-03T01:06:10.816Z,5.48
2019-02-03T01:07:10.769Z,5.46
2019-02-03T01:08:10.812Z,5.45
2019-02-03T01:09:10.740Z,5.46
2019-02-03T01:10:10.730Z,5.37
2019-02-03T01:11:10.734Z,5.46
2019-02-03T01:12:10.736Z,5.45
2019-02-03T01:13:10.759Z,5.46
2019-02-03T01:14:10.703Z,5.45
2019-02-03T01:15:10.689Z,5.37
2019-02-03T01:16:10.690Z,5.40
2019-02-03T01:17:10.677Z,5.34
2019-02-03T01:18:10.670Z,5.38
2019-02-03T01:19:10.671Z,5.45
2019-02-03T01:20:10.709Z,5.46
2019-02-03T01:21:10.660Z,5.28
2019-02-03T01:22:10.614Z,5.30
2019-02-03T01:23:10.624Z,5.28
2019-02-03T01:24:10.622Z,5.35
2019-02-03T01:25:10.603Z,5.35
2019-02-03T01:26:10.600Z,5.40
2019-02-03T01:27:10.573Z,5.35
2019-02-03T01:28:10.577Z,5.34
2019-02-03T01:29:10.549Z,5.49
2019-02-03T01:30:10.580Z,5.37
2019-02-03T01:31:10.542Z,5.37
2019-02-03T01:32:10.523Z,5.38
2019-02-03T01:33:10.509Z,5.40
2019-02-03T01:34:10.502Z,5.40
2019-02-03T01:35:10.511Z,5.40
2019-02-03T01:36:10.514Z,5.35
2019-02-03T01:37:10.499Z,5.37
2019-02-03T01:38:10.473Z,5.37
2019-02-03T01:39:10.467Z,5.27
2019-02-03T01:40:10.462Z,5.25
2019-02-03T01:41:10.426Z,5.28
2019-02-03T01:42:10.454Z,5.30
2019-02-03T01:43:10.437Z,5.30
2019-02-03T01:44:10.433Z,5.28
2019-02-03T01:45:10.425Z,5.37
2019-02-03T01:46:10.381Z,5.27
2019-02-03T01:47:10.379Z,5.31
2019-02-03T01:48:10.362Z,5.27
2019-02-03T01:49:10.390Z,5.16
2019-02-03T01:50:10.349Z,5.16
2019-02-03T01:51:10.362Z,5.17
2019-02-03T01:52:10.411Z,5.20
2019-02-03T01:53:10.301Z,5.14
2019-02-03T01:54:10.298Z,5.16
2019-02-03T01:55:10.335Z,5.17
2019-02-03T01:56:10.334Z,5.04
2019-02-03T01:57:10.306Z,5.10
2019-02-03T01:58:10.255Z,5.01
2019-02-03T01:59:10.251Z,5.07
2019-02-03T02:00:10.243Z,4.99
2019-02-03T02:01:10.256Z,5.07
2019-02-03T02:02:10.234Z,5.01
2019-02-03T02:03:10.201Z,5.13
2019-02-03T02:04:10.212Z,5.12
2019-02-03T02:05:10.196Z,5.07
2019-02-03T02:06:10.206Z,4.96
2019-02-03T02:07:10.201Z,4.95
2019-02-03T02:08:10.180Z,4.99
2019-02-03T02:09:10.220Z,4.96
2019-02-03T02:10:10.150Z,4.96
2019-02-03T02:11:10.139Z,4.96
2019-02-03T02:12:10.140Z,4.94
2019-02-03T02:13:10.113Z,4.96
2019-02-03T02:14:10.149Z,4.86
2019-02-03T02:15:10.106Z,4.83
2019-02-03T02:16:10.085Z,4.84
2019-02-03T02:17:10.095Z,4.95
2019-02-03T02:18:10.071Z,4.80
2019-02-03T02:19:10.041Z,4.98
2019-02-03T02:20:10.092Z,4.94
2019-02-03T02:21:10.048Z,4.94
2019-02-03T02:22:10.053Z,4.80
2019-02-03T02:23:10.036Z,4.95
2019-02-03T02:24:10.028Z,4.92
2019-02-03T02:25:10.018Z,4.79
2019-02-03T02:26:10.020Z,4.80
2019-02-03T02:27:10.047Z,4.73
2019-02-03T02:28:09.960Z,4.79
2019-02-03T02:29:09.957Z,4.67
2019-02-03T02:30:09.961Z,4.77
2019-02-03T02:31:09.986Z,4.77
2019-02-03T02:32:09.946Z,4.76
2019-02-03T02:33:09.908Z,4.86
2019-02-03T02:34:09.896Z,4.86
2019-02-03T02:35:09.888Z,4.77
2019-02-03T02:36:09.912Z,4.83
2019-02-03T02:37:09.856Z,4.83
2019-02-03T02:38:09.900Z,4.73
2019-02-03T02:39:09.873Z,4.77
2019-02-03T02:40:12.859Z,4.83
2019-02-03T02:41:09.852Z,4.79
2019-02-03T02:42:09.819Z,4.79
2019-02-03T02:43:09.798Z,4.77
2019-02-03T02:44:09.818Z,4.84
2019-02-03T02:45:09.810Z,4.83
2019-02-03T02:46:09.824Z,4.64
2019-02-03T02:47:09.763Z,4.67
2019-02-03T02:48:09.764Z,4.61
2019-02-03T02:49:09.744Z,4.65
2019-02-03T02:50:09.730Z,4.61
2019-02-03T02:51:09.712Z,4.61
2019-02-03T02:52:09.737Z,4.51
2019-02-03T02:53:09.705Z,4.58
2019-02-03T02:54:09.688Z,4.62
2019-02-03T02:55:09.705Z,4.52
2019-02-03T02:56:09.663Z,4.61
2019-02-03T03:14:28.121Z,4.42
2019-02-03T03:15:28.079Z,4.39
2019-02-03T03:16:28.082Z,4.28
2019-02-03T03:17:28.208Z,4.29
2019-02-03T03:18:28.027Z,4.29
2019-02-03T03:19:28.009Z,4.14
2019-02-03T03:20:28.008Z,4.22
2019-02-03T03:21:28.002Z,4.24
2019-02-03T03:22:28.020Z,4.32
2019-02-03T03:23:27.954Z,4.28
2019-02-03T03:24:27.942Z,4.33
2019-02-03T03:25:27.958Z,4.18
2019-02-03T03:26:27.922Z,4.33
2019-02-03T03:27:27.955Z,4.18
2019-02-03T03:28:27.931Z,4.26
2019-02-03T03:29:27.920Z,4.19
2019-02-03T03:30:27.910Z,4.15
2019-02-03T03:31:27.890Z,4.22
2019-02-03T03:32:27.871Z,4.15
2019-02-03T03:33:27.868Z,4.12
2019-02-03T03:34:27.841Z,4.19
2019-02-03T03:35:27.833Z,4.18
2019-02-03T03:36:27.856Z,4.15
2019-02-03T03:37:27.836Z,4.15
2019-02-03T03:38:32.155Z,4.14
2019-02-03T03:39:27.795Z,4.16
2019-02-03T03:40:27.785Z,4.16
2019-02-03T03:41:27.766Z,4.03
2019-02-03T03:42:27.828Z,4.15
2019-02-03T03:43:27.732Z,4.15
2019-02-03T03:44:27.759Z,4.16
2019-02-03T03:45:27.715Z,4.14
2019-02-03T03:46:27.783Z,4.14
2019-02-03T03:47:27.699Z,4.10
2019-02-03T03:48:27.766Z,4.18
2019-02-03T03:49:27.655Z,4.18
2019-02-03T03:50:27.654Z,4.21
2019-02-03T03:51:27.675Z,4.07
2019-02-03T03:52:27.633Z,4.15
2019-02-03T03:53:27.641Z,4.07
2019-02-03T03:54:27.651Z,4.10
2019-02-03T03:55:27.593Z,4.16
2019-02-03T03:56:27.605Z,3.96
2019-02-03T03:57:27.626Z,4.01
2019-02-03T03:58:27.588Z,3.88
2019-02-03T03:59:27.573Z,4.04
2019-02-03T04:00:27.553Z,4.12
2019-02-03T04:01:27.588Z,4.07
2019-02-03T04:02:27.526Z,3.96
2019-02-03T04:03:27.510Z,3.85
2019-02-03T04:04:27.531Z,3.94
2019-02-03T04:05:27.522Z,3.94
2019-02-03T04:06:27.504Z,3.97
2019-02-03T04:07:27.463Z,4.06
2019-02-03T04:08:27.468Z,4.07
2019-02-03T04:09:27.434Z,3.97
2019-02-03T04:10:27.462Z,3.94
2019-02-03T04:11:27.454Z,4.08
2019-02-03T04:12:27.429Z,3.98
2019-02-03T04:13:27.439Z,4.04
2019-02-03T04:14:27.377Z,4.00
2019-02-03T04:15:27.413Z,4.06
2019-02-03T04:16:27.453Z,4.06
2019-02-03T04:17:27.393Z,3.94
2019-02-03T04:18:27.343Z,4.01
2019-02-03T04:19:27.330Z,4.04
2019-02-03T04:20:27.326Z,4.12
2019-02-03T04:21:27.315Z,4.08
2019-02-03T04:22:27.315Z,3.94
2019-02-03T04:23:27.296Z,4.14
2019-02-03T04:24:27.305Z,4.04
2019-02-03T04:25:27.306Z,4.00
2019-02-03T04:26:27.257Z,4.01
2019-02-03T04:27:27.270Z,4.15
2019-02-03T04:28:27.253Z,4.01
2019-02-03T04:29:27.220Z,4.07
2019-02-03T04:30:27.219Z,4.16
2019-02-03T04:31:27.203Z,4.07
2019-02-03T04:32:27.227Z,4.14
2019-02-03T04:33:27.220Z,4.18
2019-02-03T04:34:29.827Z,4.07
2019-02-03T04:35:27.180Z,4.01
2019-02-03T04:36:27.170Z,4.03
2019-02-03T04:37:27.142Z,4.04
2019-02-03T04:38:27.373Z,3.90
2019-02-03T04:39:27.107Z,3.92
2019-02-03T04:40:27.129Z,3.90
2019-02-03T04:41:27.109Z,3.80
2019-02-03T04:42:27.115Z,3.92
2019-02-03T04:43:27.103Z,3.80
2019-02-03T04:44:27.060Z,3.78
2019-02-03T04:45:27.062Z,3.71
2019-02-03T04:46:27.073Z,3.72
2019-02-03T04:47:27.025Z,3.90
2019-02-03T04:48:27.039Z,3.86
2019-02-03T04:49:27.030Z,3.82
2019-02-03T04:50:27.014Z,3.86
2019-02-03T04:51:26.990Z,3.89
2019-02-03T04:52:26.997Z,3.90
2019-02-03T04:53:27.034Z,3.86
2019-02-03T04:54:26.957Z,3.80
2019-02-03T04:55:26.975Z,3.92
2019-02-03T04:56:26.945Z,3.86
2019-02-03T04:57:26.972Z,3.89
2019-02-03T04:58:26.913Z,3.83
2019-02-03T04:59:26.912Z,3.89
2019-02-03T05:00:26.903Z,3.80
2019-02-03T05:01:26.879Z,3.86
2019-02-03T05:02:26.878Z,3.85
2019-02-03T05:03:26.868Z,3.90
2019-02-03T05:04:26.862Z,3.98
2019-02-03T05:05:26.899Z,3.92
2019-02-03T05:06:26.859Z,3.88
2019-02-03T05:07:26.797Z,3.76
2019-02-03T05:08:26.811Z,3.83
2019-02-03T05:09:26.792Z,3.71
2019-02-03T05:10:26.786Z,3.79
2019-02-03T05:11:26.777Z,3.82
2019-02-03T05:12:26.751Z,3.76
2019-02-03T05:13:26.729Z,3.89
2019-02-03T05:14:26.719Z,3.79
2019-02-03T05:15:26.716Z,3.83
2019-02-03T05:16:26.715Z,3.83
2019-02-03T05:17:26.750Z,3.78
2019-02-03T05:18:26.725Z,3.85
2019-02-03T05:19:26.694Z,3.82
2019-02-03T05:20:26.670Z,3.79
2019-02-03T05:21:26.678Z,3.89
2019-02-03T05:22:26.725Z,3.83
2019-02-03T05:23:26.646Z,3.88
2019-02-03T05:24:26.666Z,3.97
2019-02-03T05:25:26.640Z,3.83
2019-02-03T05:26:26.588Z,3.89
2019-02-03T05:27:26.591Z,3.86
2019-02-03T05:28:26.590Z,3.90
2019-02-03T05:29:26.563Z,3.83
2019-02-03T05:30:26.600Z,3.88
2019-02-03T05:31:26.580Z,3.88
2019-02-03T05:32:26.524Z,3.86
2019-02-03T05:33:26.526Z,3.82
2019-02-03T05:34:26.534Z,3.85
2019-02-03T05:35:26.649Z,3.86
2019-02-03T05:36:26.537Z,3.78
2019-02-03T05:37:26.471Z,3.68
2019-02-03T05:38:26.457Z,3.78
2019-02-03T05:39:26.486Z,3.70
2019-02-03T05:40:26.480Z,3.78
2019-02-03T05:41:26.491Z,3.71
2019-02-03T05:42:26.423Z,3.83
2019-02-03T05:43:26.418Z,3.71
2019-02-03T05:44:26.423Z,3.68
2019-02-03T05:45:26.385Z,3.78
2019-02-03T05:46:26.478Z,3.79
2019-02-03T05:47:26.411Z,3.70
2019-02-03T05:48:26.345Z,3.68
2019-02-03T05:49:26.335Z,3.83
2019-02-03T05:50:26.327Z,3.86
2019-02-03T05:51:26.328Z,3.71
2019-02-03T05:52:26.333Z,3.83
2019-02-03T05:53:26.308Z,3.72
2019-02-03T05:54:26.279Z,3.78
2019-02-03T05:55:26.269Z,3.86
2019-02-03T05:56:26.275Z,3.75
2019-02-03T05:57:26.259Z,3.65
2019-02-03T05:58:26.269Z,3.80
2019-02-03T05:59:26.217Z,3.76
2019-02-03T06:00:26.205Z,3.76
2019-02-03T06:01:26.212Z,3.75
2019-02-03T06:02:26.203Z,3.70
2019-02-03T06:03:26.179Z,3.68
2019-02-03T06:04:26.161Z,3.68
2019-02-03T06:05:26.249Z,3.80
2019-02-03T06:06:26.136Z,3.68
2019-02-03T06:07:26.144Z,3.64
2019-02-03T06:08:26.182Z,3.82
2019-02-03T06:09:36.345Z,3.80
2019-02-03T06:10:26.096Z,3.70
2019-02-03T06:11:26.155Z,3.62
2019-02-03T06:12:26.094Z,3.58
2019-02-03T06:13:26.073Z,3.71
2019-02-03T06:14:26.053Z,3.78
2019-02-03T06:15:26.076Z,3.86
2019-02-03T06:16:26.060Z,3.71
2019-02-03T06:17:26.028Z,3.70
2019-02-03T06:18:26.009Z,3.70
2019-02-03T06:19:25.992Z,3.72
2019-02-03T06:20:25.987Z,3.65
2019-02-03T06:21:25.992Z,3.68
2019-02-03T06:22:25.954Z,3.80
2019-02-03T06:23:25.957Z,3.72
2019-02-03T06:24:25.939Z,3.70
2019-02-03T06:25:25.965Z,3.60
2019-02-03T06:26:26.079Z,3.65
2019-02-03T06:27:25.908Z,3.67
2019-02-03T06:28:25.908Z,3.65
2019-02-03T06:29:25.902Z,3.60
2019-02-03T06:30:25.886Z,3.71
2019-02-03T06:31:25.866Z,3.64
2019-02-03T06:32:25.886Z,3.68
2019-02-03T06:33:25.832Z,3.75
2019-02-03T06:34:25.859Z,3.67
2019-02-03T06:35:25.825Z,3.70
2019-02-03T06:36:25.841Z,3.67
2019-02-03T06:37:25.815Z,3.67
2019-02-03T06:38:25.775Z,3.79
2019-02-03T06:39:25.828Z,3.67
2019-02-03T06:40:25.780Z,3.67
2019-02-03T06:41:25.761Z,3.71
2019-02-03T06:42:25.758Z,3.68
2019-02-03T06:43:25.770Z,3.67
2019-02-03T06:44:25.771Z,3.71
2019-02-03T06:45:25.734Z,3.70
2019-02-03T06:46:25.693Z,3.75
2019-02-03T06:47:25.695Z,3.71
2019-02-03T06:48:25.706Z,3.68
2019-02-03T06:49:25.659Z,3.71
2019-02-03T06:50:25.644Z,3.71
2019-02-03T06:51:25.631Z,3.58
2019-02-03T06:52:25.643Z,3.71
2019-02-03T06:53:25.642Z,3.68
2019-02-03T06:54:25.616Z,3.65
2019-02-03T06:55:25.584Z,3.78
2019-02-03T06:56:25.580Z,3.80
2019-02-03T06:57:25.557Z,3.78
2019-02-03T06:58:25.578Z,3.78
2019-02-03T06:59:25.567Z,3.71
2019-02-03T07:00:25.564Z,3.76
2019-02-03T07:01:25.535Z,3.71
2019-02-03T07:02:25.505Z,3.68
2019-02-03T07:03:25.491Z,3.78
2019-02-03T07:04:25.617Z,3.70
2019-02-03T07:05:25.498Z,3.75
2019-02-03T07:06:25.489Z,3.76
2019-02-03T07:07:25.442Z,3.80
2019-02-03T07:08:25.457Z,3.80
2019-02-03T07:09:25.435Z,3.79
2019-02-03T07:10:25.491Z,3.71
2019-02-03T07:11:25.553Z,3.68
2019-02-03T07:12:25.704Z,3.72
2019-02-03T07:13:25.765Z,3.71
2019-02-03T07:14:25.899Z,3.79
2019-02-03T07:15:25.363Z,3.80
2019-02-03T07:16:25.368Z,3.86
2019-02-03T07:17:25.363Z,3.86
2019-02-03T07:18:25.321Z,3.71
2019-02-03T07:19:25.304Z,3.75
2019-02-03T07:20:25.303Z,3.82
2019-02-03T07:21:25.304Z,3.80
2019-02-03T07:22:25.275Z,3.71
2019-02-03T07:23:25.259Z,3.72
2019-02-03T07:24:25.258Z,3.67
2019-02-03T07:25:25.256Z,3.79
2019-02-03T07:26:25.259Z,3.78
2019-02-03T07:27:25.246Z,3.83
2019-02-03T07:28:25.245Z,3.76
2019-02-03T07:29:25.193Z,3.83
2019-02-03T07:30:25.185Z,3.76
2019-02-03T07:31:25.172Z,3.72
2019-02-03T07:32:25.193Z,3.75
2019-02-03T07:33:25.173Z,3.76
2019-02-03T07:34:25.147Z,3.83
2019-02-03T07:35:25.145Z,3.71
2019-02-03T07:36:25.115Z,3.80
2019-02-03T07:37:25.112Z,3.83
2019-02-03T07:38:25.121Z,3.85
2019-02-03T07:39:25.095Z,3.86
2019-02-03T07:40:25.079Z,3.82
2019-02-03T07:41:25.062Z,3.86
2019-02-03T07:42:33.745Z,3.79
2019-02-03T07:44:18.500Z,3.76
2019-02-03T07:45:18.437Z,3.72
2019-02-03T07:46:18.416Z,3.86
2019-02-03T07:47:18.439Z,3.72
2019-02-03T07:48:18.446Z,3.83
2019-02-03T07:49:18.414Z,3.88
2019-02-03T07:50:18.398Z,3.85
2019-02-03T07:51:18.361Z,3.85
2019-02-03T07:52:18.418Z,3.86
2019-02-03T07:53:18.352Z,3.85
2019-02-03T07:54:18.402Z,3.86
2019-02-03T07:55:18.363Z,3.85
2019-02-03T07:56:18.373Z,3.83
2019-02-03T07:57:18.299Z,3.82
2019-02-03T07:58:18.301Z,3.78
2019-02-03T07:59:18.300Z,3.85
2019-02-03T08:00:18.416Z,3.86
2019-02-03T08:01:18.273Z,3.90
2019-02-03T08:02:18.255Z,3.88
2019-02-03T08:03:18.232Z,3.98
2019-02-03T08:04:18.258Z,3.88
2019-02-03T08:05:18.204Z,3.89
2019-02-03T08:06:18.239Z,3.86
2019-02-03T08:07:18.195Z,3.90
2019-02-03T08:08:18.239Z,3.89
2019-02-03T08:09:18.166Z,3.89
2019-02-03T08:10:25.881Z,3.92
2019-02-03T08:11:18.157Z,3.88
2019-02-03T08:12:18.127Z,3.90
2019-02-03T08:13:18.113Z,3.92
2019-02-03T08:14:18.155Z,3.92
2019-02-03T08:15:18.090Z,3.88
2019-02-03T08:16:18.102Z,3.88
2019-02-03T08:17:18.072Z,4.07
2019-02-03T08:18:18.054Z,4.03
2019-02-03T08:19:18.093Z,4.03
2019-02-03T08:20:18.043Z,4.00
2019-02-03T08:21:18.051Z,3.97
2019-02-03T08:22:18.008Z,3.96
2019-02-03T08:23:18.008Z,3.98
2019-02-03T08:24:18.019Z,3.89
2019-02-03T08:25:17.993Z,3.92
2019-02-03T08:26:17.971Z,3.97
2019-02-03T08:27:18.023Z,3.98
2019-02-03T08:28:17.949Z,3.94
2019-02-03T08:29:17.956Z,4.04
2019-02-03T08:30:17.942Z,4.08
2019-02-03T08:31:17.920Z,3.94
2019-02-03T08:32:17.931Z,4.14
2019-02-03T08:33:17.887Z,4.00
2019-02-03T08:34:17.898Z,4.01
2019-02-03T08:35:19.921Z,4.04
2019-02-03T08:36:17.862Z,4.10
2019-02-03T08:37:17.856Z,4.14
2019-02-03T08:38:17.863Z,3.96
2019-02-03T08:39:17.822Z,4.03
2019-02-03T08:40:17.824Z,4.12
2019-02-03T08:41:17.873Z,4.03
2019-02-03T08:42:17.799Z,3.98
2019-02-03T08:43:17.782Z,4.01
2019-02-03T08:44:17.799Z,4.01
2019-02-03T08:45:17.795Z,4.01
2019-02-03T08:46:17.767Z,4.06
2019-02-03T08:47:17.750Z,4.04
2019-02-03T08:48:17.770Z,3.98
2019-02-03T08:49:17.721Z,4.14
2019-02-03T08:50:17.701Z,4.15
2019-02-03T08:51:17.695Z,4.12
2019-02-03T08:52:17.674Z,4.12
2019-02-03T08:53:17.698Z,4.15
2019-02-03T08:54:17.683Z,4.12
2019-02-03T08:55:17.672Z,4.15
2019-02-03T08:56:17.657Z,4.10
2019-02-03T08:57:17.628Z,4.15
2019-02-03T08:58:17.647Z,4.12
2019-02-03T08:59:17.640Z,4.14
2019-02-03T09:00:17.649Z,4.12
2019-02-03T09:01:17.581Z,4.14
2019-02-03T09:02:17.619Z,4.12
2019-02-03T09:03:17.584Z,4.08
2019-02-03T09:04:17.545Z,4.12
2019-02-03T09:05:17.532Z,4.28
2019-02-03T09:06:17.526Z,4.21
2019-02-03T09:07:17.540Z,4.25
2019-02-03T09:08:17.521Z,4.26
2019-02-03T09:09:17.545Z,4.26
2019-02-03T09:10:17.485Z,4.24
2019-02-03T09:11:17.493Z,4.25
2019-02-03T09:12:17.464Z,4.33
2019-02-03T09:13:17.443Z,4.34
2019-02-03T09:14:17.474Z,4.28
2019-02-03T09:15:19.547Z,4.28
2019-02-03T09:16:17.420Z,4.39
2019-02-03T09:17:17.423Z,4.40
2019-02-03T09:18:17.402Z,4.28
2019-02-03T09:19:17.387Z,4.25
2019-02-03T09:20:17.399Z,4.37
2019-02-03T09:21:17.377Z,4.40
2019-02-03T09:22:17.394Z,4.43
2019-02-03T09:23:17.332Z,4.37
2019-02-03T09:24:17.353Z,4.40
2019-02-03T09:25:17.315Z,4.46
2019-02-03T09:26:17.330Z,4.47
2019-02-03T09:27:17.301Z,4.43
2019-02-03T09:28:17.330Z,4.43
2019-02-03T09:29:17.294Z,4.37
2019-02-03T09:30:17.300Z,4.42
2019-02-03T09:31:17.257Z,4.43
2019-02-03T09:32:17.282Z,4.42
2019-02-03T09:33:17.273Z,4.57
2019-02-03T09:34:17.234Z,4.55
2019-02-03T09:35:17.217Z,4.55
2019-02-03T09:36:17.282Z,4.47
2019-02-03T09:37:17.242Z,4.57
2019-02-03T09:38:17.228Z,4.54
2019-02-03T09:39:17.170Z,4.61
2019-02-03T09:40:17.166Z,4.57
2019-02-03T09:41:17.188Z,4.52
2019-02-03T09:42:17.176Z,4.55
2019-02-03T09:43:17.116Z,4.58
2019-02-03T09:45:49.254Z,4.70
2019-02-03T09:46:49.235Z,4.70
2019-02-03T09:47:49.244Z,4.70
2019-02-03T09:48:49.228Z,4.54
2019-02-03T09:49:49.206Z,4.55
2019-02-03T09:50:49.189Z,4.43
2019-02-03T09:51:49.177Z,4.39
2019-02-03T09:52:49.177Z,4.51
2019-02-03T09:53:49.186Z,4.54
2019-02-03T09:54:50.204Z,4.50
2019-02-03T09:55:49.156Z,4.51
2019-02-03T09:56:49.153Z,4.50
2019-02-03T09:57:49.124Z,4.37
2019-02-03T09:58:49.133Z,4.52
2019-02-03T09:59:49.092Z,4.55
2019-02-03T10:00:49.077Z,4.59
2019-02-03T10:01:49.100Z,4.50
2019-02-03T10:02:49.058Z,4.50
2019-02-03T10:03:49.059Z,4.52
2019-02-03T10:04:49.086Z,4.47
2019-02-03T10:05:49.038Z,4.52
2019-02-03T10:06:49.011Z,4.50
2019-02-03T10:07:49.027Z,4.52
2019-02-03T10:08:49.022Z,4.39
2019-02-03T10:09:48.999Z,4.39
2019-02-03T10:10:48.997Z,4.51
2019-02-03T10:11:48.967Z,4.55
2019-02-03T10:12:48.977Z,4.67
2019-02-03T10:13:48.940Z,4.57
2019-02-03T10:14:48.927Z,4.64
2019-02-03T10:15:48.936Z,4.61
2019-02-03T10:16:48.933Z,4.58
2019-02-03T10:17:48.925Z,4.54
2019-02-03T10:18:48.902Z,4.62
2019-02-03T10:19:48.899Z,4.58
2019-02-03T10:20:48.864Z,4.50
2019-02-03T10:21:48.851Z,4.58
2019-02-03T10:22:48.872Z,4.58
2019-02-03T10:23:48.826Z,4.65
2019-02-03T10:24:48.823Z,4.62
2019-02-03T10:25:48.829Z,4.65
2019-02-03T10:26:48.796Z,4.75
2019-02-03T10:27:48.812Z,4.70
2019-02-03T10:28:48.774Z,4.61
2019-02-03T10:29:48.764Z,4.64
2019-02-03T10:30:48.771Z,4.65
2019-02-03T10:31:48.755Z,4.61
2019-02-03T10:32:48.733Z,4.65
2019-02-03T10:33:48.723Z,4.73
2019-02-03T10:34:48.756Z,4.83
2019-02-03T10:35:48.746Z,4.89
2019-02-03T10:36:48.726Z,4.88
2019-02-03T10:37:48.697Z,4.94
2019-02-03T10:38:48.661Z,4.95
2019-02-03T10:39:48.712Z,4.94
2019-02-03T10:40:48.681Z,4.92
2019-02-03T10:41:48.711Z,4.80
2019-02-03T10:42:48.624Z,4.72
2019-02-03T10:43:48.685Z,4.95
2019-02-03T10:44:48.601Z,4.89
2019-02-03T10:45:48.620Z,4.86
2019-02-03T10:46:48.585Z,4.95
2019-02-03T10:47:48.568Z,4.95
2019-02-03T10:48:48.595Z,5.01
2019-02-03T10:49:48.578Z,5.02
2019-02-03T10:50:48.534Z,5.04
2019-02-03T10:51:48.984Z,5.04
2019-02-03T10:52:48.539Z,4.98
2019-02-03T10:53:48.533Z,5.07
2019-02-03T10:54:48.495Z,5.13
2019-02-03T10:55:48.512Z,5.10
2019-02-03T10:56:48.494Z,5.05
2019-02-03T10:57:48.502Z,5.13
2019-02-03T10:58:48.502Z,5.10
2019-02-03T10:59:48.594Z,5.14
2019-02-03T11:00:48.434Z,5.20
2019-02-03T11:01:48.433Z,5.05
2019-02-03T11:02:48.429Z,5.14
2019-02-03T11:03:48.414Z,5.13
2019-02-03T11:04:48.397Z,5.12
2019-02-03T11:05:48.415Z,5.12
2019-02-03T11:06:48.380Z,5.13
2019-02-03T11:07:48.351Z,5.12
2019-02-03T11:08:48.367Z,5.10
2019-02-03T11:09:48.354Z,5.02
2019-02-03T11:10:48.355Z,5.04
2019-02-03T11:11:48.315Z,5.12
2019-02-03T11:12:48.313Z,5.16
2019-02-03T11:13:48.302Z,5.12
2019-02-03T11:14:48.327Z,5.13
2019-02-03T11:15:48.275Z,5.17
2019-02-03T11:16:48.274Z,5.14
2019-02-03T11:17:48.260Z,5.13
2019-02-03T11:18:48.274Z,5.01
2019-02-03T11:19:48.264Z,5.12
2019-02-03T11:20:48.236Z,5.04
2019-02-03T11:21:48.223Z,5.09
2019-02-03T11:22:48.204Z,5.07
2019-02-03T11:23:48.205Z,4.98
2019-02-03T11:24:48.204Z,4.95
2019-02-03T11:25:48.189Z,4.99
2019-02-03T11:26:48.170Z,4.95
2019-02-03T11:27:48.156Z,5.01
2019-02-03T11:28:48.137Z,4.99
2019-02-03T11:29:48.154Z,5.04
2019-02-03T11:30:48.143Z,5.09
2019-02-03T11:31:48.104Z,5.12
2019-02-03T11:32:48.121Z,5.05
2019-02-03T11:33:48.088Z,5.02
2019-02-03T11:34:48.072Z,5.12
2019-02-03T11:35:48.075Z,5.23
2019-02-03T11:36:48.090Z,5.25
2019-02-03T11:37:48.042Z,5.37
2019-02-03T11:38:48.038Z,5.34
2019-02-03T11:39:48.023Z,5.31
2019-02-03T11:40:48.006Z,5.31
2019-02-03T11:41:49.524Z,5.34
2019-02-03T11:42:47.998Z,5.38
2019-02-03T11:43:47.983Z,5.40
2019-02-03T11:44:48.021Z,5.34
2019-02-03T11:45:47.967Z,5.37
2019-02-03T11:46:47.955Z,5.37
2019-02-03T11:47:47.951Z,5.45
2019-02-03T11:48:47.946Z,5.46
2019-02-03T11:49:47.917Z,5.50
2019-02-03T11:50:47.909Z,5.32
2019-02-03T11:51:47.893Z,5.32
2019-02-03T11:52:47.887Z,5.37
2019-02-03T11:53:47.901Z,5.34
2019-02-03T11:54:47.892Z,5.48
2019-02-03T11:55:47.870Z,5.50
2019-02-03T11:56:47.894Z,5.64
2019-02-03T11:57:47.842Z,5.63
2019-02-03T11:58:47.903Z,5.60
2019-02-03T11:59:47.822Z,5.53
2019-02-03T12:00:47.820Z,5.53
2019-02-03T12:01:47.835Z,5.63
2019-02-03T12:02:47.783Z,5.67
2019-02-03T12:03:47.772Z,5.48
2019-02-03T12:04:47.780Z,5.43
2019-02-03T12:05:47.823Z,5.48
2019-02-03T12:06:47.771Z,5.52
2019-02-03T12:07:47.742Z,5.59
2019-02-03T12:08:47.724Z,5.64
2019-02-03T12:09:47.711Z,5.71
2019-02-03T12:10:47.707Z,5.50
2019-02-03T12:11:47.716Z,5.64
2019-02-03T12:12:47.703Z,5.66
2019-02-03T12:13:47.675Z,5.41
2019-02-03T12:14:47.667Z,5.41
2019-02-03T12:15:48.198Z,5.52
2019-02-03T12:16:47.671Z,5.52
2019-02-03T12:17:47.657Z,5.55
2019-02-03T12:18:47.724Z,5.60
2019-02-03T12:19:47.617Z,5.46
2019-02-03T12:20:47.595Z,5.43
2019-02-03T12:21:47.591Z,5.52
2019-02-03T12:22:56.262Z,5.41
2019-02-03T12:24:41.012Z,5.35
2019-02-03T12:25:40.973Z,5.37
2019-02-03T12:26:40.955Z,5.40
2019-02-03T12:27:40.998Z,5.35
2019-02-03T12:28:40.957Z,5.40
2019-02-03T12:29:40.962Z,5.35
2019-02-03T12:30:40.917Z,5.35
2019-02-03T12:31:40.920Z,5.41
2019-02-03T12:32:40.898Z,5.22
2019-02-03T12:33:40.930Z,5.25
2019-02-03T12:34:40.925Z,5.31
2019-02-03T12:35:40.943Z,5.32
2019-02-03T12:36:40.875Z,5.23
2019-02-03T12:37:40.857Z,5.34
2019-02-03T12:38:40.854Z,5.35
2019-02-03T12:39:40.872Z,5.25
2019-02-03T12:40:40.826Z,5.30
2019-02-03T12:41:40.794Z,5.30
2019-02-03T12:42:40.790Z,5.32
2019-02-03T12:43:40.795Z,5.37
2019-02-03T12:44:40.777Z,5.43
2019-02-03T12:45:40.766Z,5.45
2019-02-03T12:46:40.763Z,5.41
2019-02-03T12:47:40.767Z,5.48
2019-02-03T12:48:40.734Z,5.43
2019-02-03T12:49:40.719Z,5.40
2019-02-03T12:50:40.796Z,5.46
2019-02-03T12:51:40.831Z,5.45
2019-02-03T12:52:40.706Z,5.53
2019-02-03T12:53:40.681Z,5.52
2019-02-03T12:54:40.723Z,5.56
2019-02-03T12:55:40.662Z,5.55
2019-02-03T12:56:40.685Z,5.38
2019-02-03T12:57:40.651Z,5.41
2019-02-03T12:58:40.770Z,5.57
2019-02-03T12:59:40.675Z,5.37
2019-02-03T13:00:40.634Z,5.46
2019-02-03T13:01:40.607Z,5.49
2019-02-03T13:02:40.618Z,5.41
2019-02-03T13:03:40.606Z,5.45
2019-02-03T13:04:40.584Z,5.48
2019-02-03T13:05:40.557Z,5.48
2019-02-03T13:06:40.541Z,5.32
2019-02-03T13:07:40.589Z,5.43
2019-02-03T13:08:40.549Z,5.41
2019-02-03T13:09:40.517Z,5.45
2019-02-03T13:10:40.521Z,5.37
2019-02-03T13:11:40.554Z,5.37
2019-02-03T13:12:40.486Z,5.34
2019-02-03T13:13:40.489Z,5.35
2019-02-03T13:14:40.493Z,5.38
2019-02-03T13:15:40.465Z,5.40
2019-02-03T13:16:40.477Z,5.43
2019-02-03T13:17:40.455Z,5.38
2019-02-03T13:18:40.461Z,5.38
2019-02-03T13:19:40.411Z,5.43
2019-02-03T13:20:42.631Z,5.37
2019-02-03T13:21:40.407Z,5.41
2019-02-03T13:22:40.398Z,5.46
2019-02-03T13:23:44.930Z,5.38
2019-02-03T13:24:40.374Z,5.40
2019-02-03T13:25:40.412Z,5.38
2019-02-03T13:26:40.341Z,5.41
2019-02-03T13:27:40.354Z,5.37
2019-02-03T13:28:40.348Z,5.37
2019-02-03T13:29:42.612Z,5.38
2019-02-03T13:30:40.348Z,5.28
2019-02-03T13:31:40.327Z,5.32
2019-02-03T13:32:40.275Z,5.32
2019-02-03T13:33:40.290Z,5.41
2019-02-03T13:34:40.355Z,5.25
2019-02-03T13:35:40.290Z,5.31
2019-02-03T13:36:40.241Z,5.40
2019-02-03T13:37:40.234Z,5.27
2019-02-03T13:38:40.218Z,5.27